sensor_id;sensor_type;location;lat;lon;timestamp;P1;durP1;ratioP1;P2;durP2;ratioP2
61204;SDS011;47068;55.780;37.520;2023-04-25T00:00:29;234.90;;;220.00;;
61204;SDS011;47068;55.780;37.520;2023-04-25T00:02:55;236.70;;;221.77;;
61204;SDS011;47068;55.780;37.520;2023-04-25T00:05:25;371.73;;;350.90;;
61204;SDS011;47068;55.780;37.520;2023-04-25T00:07:51;587.50;;;547.73;;
61204;SDS011;47068;55.780;37.520;2023-04-25T00:10:17;6.43;;;5.63;;
61204;SDS011;47068;55.780;37.520;2023-04-25T00:12:44;669.83;;;614.57;;
61204;SDS011;47068;55.780;37.520;2023-04-25T00:15:09;628.15;;;584.72;;
61204;SDS011;47068;55.780;37.520;2023-04-25T00:17:35;354.13;;;331.63;;
61204;SDS011;47068;55.780;37.520;2023-04-25T00:20:03;414.95;;;393.10;;
61204;SDS011;47068;55.780;37.520;2023-04-25T00:22:35;327.58;;;309.48;;
61204;SDS011;47068;55.780;37.520;2023-04-25T00:25:03;287.77;;;270.55;;
61204;SDS011;47068;55.780;37.520;2023-04-25T00:27:29;345.50;;;326.02;;
61204;SDS011;47068;55.780;37.520;2023-04-25T00:29:54;538.17;;;495.42;;
61204;SDS011;47068;55.780;37.520;2023-04-25T00:32:20;142.45;;;132.23;;
61204;SDS011;47068;55.780;37.520;2023-04-25T00:34:45;339.45;;;319.67;;
61204;SDS011;47068;55.780;37.520;2023-04-25T00:37:11;145.43;;;133.57;;
61204;SDS011;47068;55.780;37.520;2023-04-25T00:39:36;205.80;;;191.50;;
61204;SDS011;47068;55.780;37.520;2023-04-25T00:42:02;380.13;;;357.95;;
61204;SDS011;47068;55.780;37.520;2023-04-25T00:44:29;352.15;;;331.55;;
61204;SDS011;47068;55.780;37.520;2023-04-25T00:46:55;318.73;;;300.10;;
61204;SDS011;47068;55.780;37.520;2023-04-25T00:49:22;404.15;;;381.42;;
61204;SDS011;47068;55.780;37.520;2023-04-25T00:51:47;373.55;;;350.92;;
61204;SDS011;47068;55.780;37.520;2023-04-25T00:54:13;330.13;;;310.20;;
61204;SDS011;47068;55.780;37.520;2023-04-25T00:56:39;326.10;;;306.83;;
61204;SDS011;47068;55.780;37.520;2023-04-25T00:59:05;430.95;;;406.15;;
61204;SDS011;47068;55.780;37.520;2023-04-25T01:01:31;282.60;;;265.67;;
61204;SDS011;47068;55.780;37.520;2023-04-25T01:03:58;470.63;;;444.27;;
61204;SDS011;47068;55.780;37.520;2023-04-25T01:06:24;658.05;;;619.20;;
61204;SDS011;47068;55.780;37.520;2023-04-25T01:08:50;434.17;;;410.38;;
61204;SDS011;47068;55.780;37.520;2023-04-25T01:13:41;521.03;;;493.30;;
61204;SDS011;47068;55.780;37.520;2023-04-25T01:16:07;515.72;;;485.38;;
61204;SDS011;47068;55.780;37.520;2023-04-25T01:18:32;172.70;;;161.48;;
61204;SDS011;47068;55.780;37.520;2023-04-25T01:21:08;275.83;;;257.73;;
61204;SDS011;47068;55.780;37.520;2023-04-25T01:23:38;513.00;;;485.08;;
61204;SDS011;47068;55.780;37.520;2023-04-25T01:26:06;524.60;;;496.77;;
61204;SDS011;47068;55.780;37.520;2023-04-25T01:28:33;621.57;;;581.83;;
61204;SDS011;47068;55.780;37.520;2023-04-25T01:33:25;618.27;;;568.27;;
61204;SDS011;47068;55.780;37.520;2023-04-25T01:35:51;595.67;;;544.00;;
61204;SDS011;47068;55.780;37.520;2023-04-25T01:38:16;663.10;;;619.72;;
61204;SDS011;47068;55.780;37.520;2023-04-25T01:40:42;667.75;;;623.63;;
61204;SDS011;47068;55.780;37.520;2023-04-25T01:43:10;623.63;;;577.77;;
61204;SDS011;47068;55.780;37.520;2023-04-25T01:45:40;683.33;;;633.97;;
61204;SDS011;47068;55.780;37.520;2023-04-25T01:48:09;679.00;;;628.07;;
61204;SDS011;47068;55.780;37.520;2023-04-25T01:50:37;620.77;;;577.90;;
61204;SDS011;47068;55.780;37.520;2023-04-25T01:53:03;678.65;;;630.67;;
61204;SDS011;47068;55.780;37.520;2023-04-25T01:55:29;682.27;;;635.10;;
61204;SDS011;47068;55.780;37.520;2023-04-25T01:57:55;635.45;;;590.72;;
61204;SDS011;47068;55.780;37.520;2023-04-25T02:00:20;615.83;;;576.78;;
61204;SDS011;47068;55.780;37.520;2023-04-25T02:02:46;650.92;;;612.85;;
61204;SDS011;47068;55.780;37.520;2023-04-25T02:05:11;633.55;;;598.28;;
61204;SDS011;47068;55.780;37.520;2023-04-25T02:07:37;619.55;;;581.45;;
61204;SDS011;47068;55.780;37.520;2023-04-25T02:10:03;316.17;;;296.85;;
61204;SDS011;47068;55.780;37.520;2023-04-25T02:12:28;178.10;;;165.27;;
61204;SDS011;47068;55.780;37.520;2023-04-25T02:14:54;221.63;;;206.48;;
61204;SDS011;47068;55.780;37.520;2023-04-25T02:17:19;300.10;;;281.95;;
61204;SDS011;47068;55.780;37.520;2023-04-25T02:19:46;246.02;;;230.88;;
61204;SDS011;47068;55.780;37.520;2023-04-25T02:22:12;124.38;;;114.82;;
61204;SDS011;47068;55.780;37.520;2023-04-25T02:24:37;191.73;;;179.00;;
61204;SDS011;47068;55.780;37.520;2023-04-25T02:27:03;205.80;;;191.30;;
61204;SDS011;47068;55.780;37.520;2023-04-25T02:29:29;349.35;;;328.50;;
61204;SDS011;47068;55.780;37.520;2023-04-25T02:31:54;652.30;;;607.65;;
61204;SDS011;47068;55.780;37.520;2023-04-25T02:34:20;606.45;;;574.75;;
61204;SDS011;47068;55.780;37.520;2023-04-25T02:36:47;258.40;;;242.45;;
61204;SDS011;47068;55.780;37.520;2023-04-25T02:39:13;656.35;;;617.55;;
61204;SDS011;47068;55.780;37.520;2023-04-25T02:41:39;71.20;;;66.50;;
61204;SDS011;47068;55.780;37.520;2023-04-25T02:44:04;107.23;;;98.60;;
61204;SDS011;47068;55.780;37.520;2023-04-25T02:46:30;43.67;;;40.80;;
61204;SDS011;47068;55.780;37.520;2023-04-25T02:48:55;23.70;;;21.85;;
61204;SDS011;47068;55.780;37.520;2023-04-25T02:51:21;29.13;;;26.85;;
61204;SDS011;47068;55.780;37.520;2023-04-25T02:53:46;38.95;;;36.22;;
61204;SDS011;47068;55.780;37.520;2023-04-25T02:56:12;20.38;;;18.83;;
61204;SDS011;47068;55.780;37.520;2023-04-25T02:58:37;27.15;;;22.20;;
61204;SDS011;47068;55.780;37.520;2023-04-25T03:01:02;39.78;;;36.97;;
61204;SDS011;47068;55.780;37.520;2023-04-25T03:03:28;76.10;;;70.60;;
61204;SDS011;47068;55.780;37.520;2023-04-25T03:05:53;104.90;;;97.05;;
61204;SDS011;47068;55.780;37.520;2023-04-25T03:08:19;96.90;;;89.45;;
61204;SDS011;47068;55.780;37.520;2023-04-25T03:10:45;160.82;;;149.95;;
61204;SDS011;47068;55.780;37.520;2023-04-25T03:13:11;232.70;;;217.07;;
61204;SDS011;47068;55.780;37.520;2023-04-25T03:15:36;218.55;;;204.10;;
61204;SDS011;47068;55.780;37.520;2023-04-25T03:18:03;222.95;;;208.60;;
61204;SDS011;47068;55.780;37.520;2023-04-25T03:20:29;170.65;;;158.23;;
61204;SDS011;47068;55.780;37.520;2023-04-25T03:22:55;564.88;;;534.53;;
61204;SDS011;47068;55.780;37.520;2023-04-25T03:25:20;482.02;;;454.77;;
61204;SDS011;47068;55.780;37.520;2023-04-25T03:27:46;355.80;;;334.63;;
61204;SDS011;47068;55.780;37.520;2023-04-25T03:30:11;189.13;;;175.40;;
61204;SDS011;47068;55.780;37.520;2023-04-25T03:32:37;275.83;;;257.02;;
61204;SDS011;47068;55.780;37.520;2023-04-25T03:35:02;274.55;;;256.80;;
61204;SDS011;47068;55.780;37.520;2023-04-25T03:37:28;377.38;;;354.65;;
61204;SDS011;47068;55.780;37.520;2023-04-25T03:39:54;501.27;;;472.50;;
61204;SDS011;47068;55.780;37.520;2023-04-25T03:42:19;630.22;;;596.28;;
61204;SDS011;47068;55.780;37.520;2023-04-25T03:44:47;599.63;;;566.42;;
61204;SDS011;47068;55.780;37.520;2023-04-25T03:47:13;613.25;;;578.85;;
61204;SDS011;47068;55.780;37.520;2023-04-25T03:49:38;459.73;;;433.13;;
61204;SDS011;47068;55.780;37.520;2023-04-25T03:52:04;445.48;;;419.23;;
61204;SDS011;47068;55.780;37.520;2023-04-25T03:54:29;603.22;;;570.42;;
61204;SDS011;47068;55.780;37.520;2023-04-25T03:56:55;447.40;;;421.55;;
61204;SDS011;47068;55.780;37.520;2023-04-25T03:59:20;388.88;;;366.20;;
61204;SDS011;47068;55.780;37.520;2023-04-25T04:01:46;150.38;;;138.65;;
61204;SDS011;47068;55.780;37.520;2023-04-25T04:04:11;125.13;;;116.10;;
61204;SDS011;47068;55.780;37.520;2023-04-25T04:06:37;252.45;;;235.40;;
61204;SDS011;47068;55.780;37.520;2023-04-25T04:09:02;204.48;;;189.90;;
61204;SDS011;47068;55.780;37.520;2023-04-25T04:11:28;268.90;;;251.38;;
61204;SDS011;47068;55.780;37.520;2023-04-25T04:13:53;313.20;;;293.17;;
61204;SDS011;47068;55.780;37.520;2023-04-25T04:16:19;512.00;;;483.48;;
61204;SDS011;47068;55.780;37.520;2023-04-25T04:18:45;525.28;;;495.67;;
61204;SDS011;47068;55.780;37.520;2023-04-25T04:21:11;365.00;;;342.10;;
61204;SDS011;47068;55.780;37.520;2023-04-25T04:23:36;313.55;;;292.77;;
61204;SDS011;47068;55.780;37.520;2023-04-25T04:26:02;729.20;;;679.45;;
61204;SDS011;47068;55.780;37.520;2023-04-25T04:28:28;392.80;;;368.27;;
61204;SDS011;47068;55.780;37.520;2023-04-25T04:30:53;568.75;;;537.47;;
61204;SDS011;47068;55.780;37.520;2023-04-25T04:33:19;393.08;;;368.27;;
61204;SDS011;47068;55.780;37.520;2023-04-25T04:35:45;448.70;;;421.67;;
61204;SDS011;47068;55.780;37.520;2023-04-25T04:38:12;540.78;;;510.00;;
61204;SDS011;47068;55.780;37.520;2023-04-25T04:40:40;504.50;;;475.42;;
61204;SDS011;47068;55.780;37.520;2023-04-25T04:43:06;630.92;;;596.65;;
61204;SDS011;47068;55.780;37.520;2023-04-25T04:45:33;685.78;;;648.28;;
61204;SDS011;47068;55.780;37.520;2023-04-25T04:47:59;664.35;;;625.15;;
61204;SDS011;47068;55.780;37.520;2023-04-25T04:50:24;379.02;;;355.80;;
61204;SDS011;47068;55.780;37.520;2023-04-25T04:52:51;410.27;;;383.92;;
61204;SDS011;47068;55.780;37.520;2023-04-25T04:55:17;1469.13;;;642.80;;
61204;SDS011;47068;55.780;37.520;2023-04-25T04:57:42;73.25;;;67.95;;
61204;SDS011;47068;55.780;37.520;2023-04-25T05:00:08;6.05;;;3.47;;
61204;SDS011;47068;55.780;37.520;2023-04-25T05:02:36;6.10;;;3.60;;
61204;SDS011;47068;55.780;37.520;2023-04-25T05:05:03;8.75;;;4.60;;
61204;SDS011;47068;55.780;37.520;2023-04-25T05:07:29;15.50;;;4.25;;
61204;SDS011;47068;55.780;37.520;2023-04-25T05:09:55;7.82;;;3.58;;
61204;SDS011;47068;55.780;37.520;2023-04-25T05:12:20;17.88;;;3.80;;
61204;SDS011;47068;55.780;37.520;2023-04-25T05:14:46;7.35;;;3.80;;
61204;SDS011;47068;55.780;37.520;2023-04-25T05:17:11;11.00;;;4.60;;
61204;SDS011;47068;55.780;37.520;2023-04-25T05:19:36;13.30;;;4.90;;
61204;SDS011;47068;55.780;37.520;2023-04-25T05:24:28;7.93;;;4.53;;
61204;SDS011;47068;55.780;37.520;2023-04-25T05:26:54;10.93;;;5.22;;
61204;SDS011;47068;55.780;37.520;2023-04-25T05:29:19;11.73;;;4.57;;
61204;SDS011;47068;55.780;37.520;2023-04-25T05:31:45;14.35;;;5.28;;
61204;SDS011;47068;55.780;37.520;2023-04-25T05:34:10;12.77;;;5.07;;
61204;SDS011;47068;55.780;37.520;2023-04-25T05:36:36;16.58;;;5.30;;
61204;SDS011;47068;55.780;37.520;2023-04-25T05:39:01;15.30;;;4.78;;
61204;SDS011;47068;55.780;37.520;2023-04-25T05:41:28;14.95;;;4.78;;
61204;SDS011;47068;55.780;37.520;2023-04-25T05:43:54;13.00;;;5.22;;
61204;SDS011;47068;55.780;37.520;2023-04-25T05:46:19;8.77;;;4.82;;
61204;SDS011;47068;55.780;37.520;2023-04-25T05:48:45;10.38;;;4.38;;
61204;SDS011;47068;55.780;37.520;2023-04-25T05:51:10;12.15;;;4.35;;
61204;SDS011;47068;55.780;37.520;2023-04-25T05:53:35;10.77;;;4.75;;
61204;SDS011;47068;55.780;37.520;2023-04-25T05:56:01;11.30;;;4.63;;
61204;SDS011;47068;55.780;37.520;2023-04-25T05:58:27;18.08;;;4.15;;
61204;SDS011;47068;55.780;37.520;2023-04-25T06:00:53;7.80;;;3.85;;
61204;SDS011;47068;55.780;37.520;2023-04-25T06:03:20;7.10;;;4.20;;
61204;SDS011;47068;55.780;37.520;2023-04-25T06:05:46;14.98;;;3.95;;
61204;SDS011;47068;55.780;37.520;2023-04-25T06:08:11;11.63;;;4.35;;
61204;SDS011;47068;55.780;37.520;2023-04-25T06:10:37;8.77;;;4.63;;
61204;SDS011;47068;55.780;37.520;2023-04-25T06:13:03;10.55;;;5.85;;
61204;SDS011;47068;55.780;37.520;2023-04-25T06:15:29;13.23;;;4.90;;
61204;SDS011;47068;55.780;37.520;2023-04-25T06:17:57;8.43;;;3.95;;
61204;SDS011;47068;55.780;37.520;2023-04-25T06:20:23;9.68;;;3.47;;
61204;SDS011;47068;55.780;37.520;2023-04-25T06:22:50;6.32;;;3.75;;
61204;SDS011;47068;55.780;37.520;2023-04-25T06:25:19;15.77;;;4.45;;
61204;SDS011;47068;55.780;37.520;2023-04-25T06:27:45;32.40;;;23.52;;
61204;SDS011;47068;55.780;37.520;2023-04-25T06:30:10;155.00;;;139.30;;
61204;SDS011;47068;55.780;37.520;2023-04-25T06:32:37;43.63;;;39.10;;
61204;SDS011;47068;55.780;37.520;2023-04-25T06:35:03;166.27;;;149.00;;
61204;SDS011;47068;55.780;37.520;2023-04-25T06:37:29;39.65;;;35.35;;
61204;SDS011;47068;55.780;37.520;2023-04-25T06:39:55;25.90;;;19.15;;
61204;SDS011;47068;55.780;37.520;2023-04-25T06:42:20;18.60;;;15.43;;
61204;SDS011;47068;55.780;37.520;2023-04-25T06:44:46;15.38;;;13.90;;
61204;SDS011;47068;55.780;37.520;2023-04-25T06:47:11;66.72;;;59.67;;
61204;SDS011;47068;55.780;37.520;2023-04-25T06:49:37;70.30;;;63.05;;
61204;SDS011;47068;55.780;37.520;2023-04-25T06:52:02;82.35;;;74.07;;
61204;SDS011;47068;55.780;37.520;2023-04-25T06:54:28;195.95;;;176.75;;
61204;SDS011;47068;55.780;37.520;2023-04-25T06:56:55;71.93;;;59.58;;
61204;SDS011;47068;55.780;37.520;2023-04-25T06:59:21;137.38;;;124.45;;
61204;SDS011;47068;55.780;37.520;2023-04-25T07:01:47;181.27;;;162.52;;
61204;SDS011;47068;55.780;37.520;2023-04-25T07:04:13;53.47;;;47.20;;
61204;SDS011;47068;55.780;37.520;2023-04-25T07:06:38;183.52;;;164.73;;
61204;SDS011;47068;55.780;37.520;2023-04-25T07:09:07;90.90;;;82.18;;
61204;SDS011;47068;55.780;37.520;2023-04-25T07:11:34;74.97;;;68.15;;
61204;SDS011;47068;55.780;37.520;2023-04-25T07:14:00;86.47;;;78.65;;
61204;SDS011;47068;55.780;37.520;2023-04-25T07:16:26;67.68;;;61.33;;
61204;SDS011;47068;55.780;37.520;2023-04-25T07:18:51;105.88;;;96.05;;
61204;SDS011;47068;55.780;37.520;2023-04-25T07:21:17;71.47;;;64.10;;
61204;SDS011;47068;55.780;37.520;2023-04-25T07:23:42;180.07;;;161.63;;
61204;SDS011;47068;55.780;37.520;2023-04-25T07:26:07;201.98;;;181.85;;
61204;SDS011;47068;55.780;37.520;2023-04-25T07:28:33;791.85;;;722.85;;
61204;SDS011;47068;55.780;37.520;2023-04-25T07:30:58;327.52;;;294.65;;
61204;SDS011;47068;55.780;37.520;2023-04-25T07:33:24;454.95;;;407.77;;
61204;SDS011;47068;55.780;37.520;2023-04-25T07:35:49;525.08;;;472.30;;
61204;SDS011;47068;55.780;37.520;2023-04-25T07:38:15;236.20;;;210.88;;
61204;SDS011;47068;55.780;37.520;2023-04-25T07:40:40;221.95;;;198.88;;
61204;SDS011;47068;55.780;37.520;2023-04-25T07:43:06;114.30;;;101.90;;
61204;SDS011;47068;55.780;37.520;2023-04-25T07:45:32;80.25;;;71.32;;
61204;SDS011;47068;55.780;37.520;2023-04-25T07:47:57;392.02;;;349.15;;
61204;SDS011;47068;55.780;37.520;2023-04-25T07:50:23;35.63;;;31.90;;
61204;SDS011;47068;55.780;37.520;2023-04-25T07:52:48;34.42;;;31.33;;
61204;SDS011;47068;55.780;37.520;2023-04-25T07:55:14;53.67;;;48.47;;
61204;SDS011;47068;55.780;37.520;2023-04-25T07:57:39;40.50;;;36.45;;
61204;SDS011;47068;55.780;37.520;2023-04-25T08:00:06;716.67;;;648.78;;
61204;SDS011;47068;55.780;37.520;2023-04-25T08:02:34;285.83;;;257.60;;
61204;SDS011;47068;55.780;37.520;2023-04-25T08:05:00;341.02;;;305.55;;
61204;SDS011;47068;55.780;37.520;2023-04-25T08:07:25;182.55;;;165.95;;
61204;SDS011;47068;55.780;37.520;2023-04-25T08:09:51;155.45;;;139.88;;
61204;SDS011;47068;55.780;37.520;2023-04-25T08:12:17;110.95;;;100.18;;
61204;SDS011;47068;55.780;37.520;2023-04-25T08:14:42;303.23;;;274.73;;
61204;SDS011;47068;55.780;37.520;2023-04-25T08:17:09;354.60;;;322.45;;
61204;SDS011;47068;55.780;37.520;2023-04-25T08:19:34;235.43;;;213.90;;
61204;SDS011;47068;55.780;37.520;2023-04-25T08:22:00;371.30;;;339.55;;
61204;SDS011;47068;55.780;37.520;2023-04-25T08:24:26;453.58;;;417.13;;
61204;SDS011;47068;55.780;37.520;2023-04-25T08:26:51;494.70;;;456.48;;
61204;SDS011;47068;55.780;37.520;2023-04-25T08:29:17;785.63;;;731.78;;
61204;SDS011;47068;55.780;37.520;2023-04-25T08:31:42;489.88;;;453.52;;
61204;SDS011;47068;55.780;37.520;2023-04-25T08:34:08;826.15;;;774.17;;
61204;SDS011;47068;55.780;37.520;2023-04-25T08:36:34;878.50;;;826.22;;
61204;SDS011;47068;55.780;37.520;2023-04-25T08:41:25;878.90;;;824.17;;
61204;SDS011;47068;55.780;37.520;2023-04-25T08:43:52;963.40;;;896.08;;
61204;SDS011;47068;55.780;37.520;2023-04-25T08:46:20;923.60;;;863.60;;
61204;SDS011;47068;55.780;37.520;2023-04-25T08:48:48;894.35;;;823.85;;
61204;SDS011;47068;55.780;37.520;2023-04-25T08:51:23;883.25;;;822.53;;
61204;SDS011;47068;55.780;37.520;2023-04-25T08:56:17;886.77;;;820.20;;
61204;SDS011;47068;55.780;37.520;2023-04-25T08:58:47;873.38;;;813.92;;
61204;SDS011;47068;55.780;37.520;2023-04-25T09:01:13;880.92;;;816.90;;
61204;SDS011;47068;55.780;37.520;2023-04-25T09:06:04;928.95;;;852.40;;
61204;SDS011;47068;55.780;37.520;2023-04-25T09:08:30;915.63;;;850.45;;
61204;SDS011;47068;55.780;37.520;2023-04-25T09:10:58;861.78;;;796.15;;
61204;SDS011;47068;55.780;37.520;2023-04-25T09:13:25;906.53;;;841.05;;
61204;SDS011;47068;55.780;37.520;2023-04-25T09:15:55;897.35;;;839.25;;
61204;SDS011;47068;55.780;37.520;2023-04-25T09:18:25;900.33;;;836.78;;
61204;SDS011;47068;55.780;37.520;2023-04-25T09:20:52;846.08;;;772.97;;
61204;SDS011;47068;55.780;37.520;2023-04-25T09:23:19;916.13;;;839.10;;
61204;SDS011;47068;55.780;37.520;2023-04-25T09:25:49;839.60;;;768.33;;
61204;SDS011;47068;55.780;37.520;2023-04-25T09:28:22;846.83;;;755.03;;
61204;SDS011;47068;55.780;37.520;2023-04-25T09:30:49;839.05;;;752.15;;
61204;SDS011;47068;55.780;37.520;2023-04-25T09:33:20;1050.80;;;725.27;;
61204;SDS011;47068;55.780;37.520;2023-04-25T09:35:52;1026.60;;;773.60;;
61204;SDS011;47068;55.780;37.520;2023-04-25T09:38:20;963.13;;;779.23;;
61204;SDS011;47068;55.780;37.520;2023-04-25T09:40:47;1100.47;;;756.17;;
61204;SDS011;47068;55.780;37.520;2023-04-25T09:43:24;909.95;;;819.30;;
61204;SDS011;47068;55.780;37.520;2023-04-25T09:45:53;595.50;;;558.57;;
61204;SDS011;47068;55.780;37.520;2023-04-25T09:48:24;772.08;;;724.83;;
61204;SDS011;47068;55.780;37.520;2023-04-25T09:53:28;659.70;;;619.47;;
61204;SDS011;47068;55.780;37.520;2023-04-25T09:55:53;674.70;;;633.97;;
61204;SDS011;47068;55.780;37.520;2023-04-25T09:58:21;1412.70;;;759.60;;
61204;SDS011;47068;55.780;37.520;2023-04-25T10:00:49;935.20;;;660.30;;
61204;SDS011;47068;55.780;37.520;2023-04-25T10:03:16;695.22;;;654.47;;
61204;SDS011;47068;55.780;37.520;2023-04-25T10:05:42;363.05;;;338.83;;
61204;SDS011;47068;55.780;37.520;2023-04-25T10:08:08;302.95;;;281.48;;
61204;SDS011;47068;55.780;37.520;2023-04-25T10:10:35;171.30;;;158.07;;
61204;SDS011;47068;55.780;37.520;2023-04-25T10:13:03;242.98;;;225.70;;
61204;SDS011;47068;55.780;37.520;2023-04-25T10:15:31;377.95;;;352.85;;
61204;SDS011;47068;55.780;37.520;2023-04-25T10:18:00;365.90;;;341.55;;
61204;SDS011;47068;55.780;37.520;2023-04-25T10:22:51;233.27;;;215.75;;
61204;SDS011;47068;55.780;37.520;2023-04-25T10:25:21;126.53;;;115.93;;
61204;SDS011;47068;55.780;37.520;2023-04-25T10:27:50;145.82;;;134.68;;
61204;SDS011;47068;55.780;37.520;2023-04-25T10:30:16;283.58;;;263.30;;
61204;SDS011;47068;55.780;37.520;2023-04-25T10:32:43;458.38;;;428.27;;
61204;SDS011;47068;55.780;37.520;2023-04-25T10:35:16;346.45;;;321.63;;
61204;SDS011;47068;55.780;37.520;2023-04-25T10:40:34;875.70;;;822.10;;
61204;SDS011;47068;55.780;37.520;2023-04-25T10:45:56;815.00;;;767.70;;
61204;SDS011;47068;55.780;37.520;2023-04-25T10:48:28;902.47;;;828.30;;
61204;SDS011;47068;55.780;37.520;2023-04-25T10:51:08;818.95;;;763.42;;
61204;SDS011;47068;55.780;37.520;2023-04-25T10:53:35;883.60;;;822.83;;
61204;SDS011;47068;55.780;37.520;2023-04-25T10:56:08;832.40;;;766.25;;
61204;SDS011;47068;55.780;37.520;2023-04-25T10:59:04;887.55;;;817.35;;
61204;SDS011;47068;55.780;37.520;2023-04-25T11:01:41;824.00;;;762.17;;
61204;SDS011;47068;55.780;37.520;2023-04-25T11:04:25;874.35;;;813.00;;
61204;SDS011;47068;55.780;37.520;2023-04-25T11:09:35;790.50;;;741.88;;
61204;SDS011;47068;55.780;37.520;2023-04-25T11:12:03;888.13;;;824.28;;
61204;SDS011;47068;55.780;37.520;2023-04-25T11:14:29;823.10;;;762.00;;
61204;SDS011;47068;55.780;37.520;2023-04-25T11:16:58;813.55;;;751.95;;
61204;SDS011;47068;55.780;37.520;2023-04-25T11:19:26;831.95;;;768.75;;
61204;SDS011;47068;55.780;37.520;2023-04-25T11:21:56;897.25;;;816.75;;
61204;SDS011;47068;55.780;37.520;2023-04-25T11:24:29;825.85;;;756.83;;
61204;SDS011;47068;55.780;37.520;2023-04-25T11:26:59;886.30;;;818.33;;
61204;SDS011;47068;55.780;37.520;2023-04-25T11:29:29;884.88;;;823.60;;
61204;SDS011;47068;55.780;37.520;2023-04-25T11:31:56;877.75;;;814.88;;
61204;SDS011;47068;55.780;37.520;2023-04-25T11:34:23;809.05;;;750.92;;
61204;SDS011;47068;55.780;37.520;2023-04-25T11:36:52;859.47;;;804.40;;
61204;SDS011;47068;55.780;37.520;2023-04-25T11:39:18;784.95;;;734.33;;
61204;SDS011;47068;55.780;37.520;2023-04-25T11:41:44;882.00;;;816.38;;
61204;SDS011;47068;55.780;37.520;2023-04-25T11:44:10;876.92;;;812.78;;
61204;SDS011;47068;55.780;37.520;2023-04-25T11:49:01;808.47;;;741.30;;
61204;SDS011;47068;55.780;37.520;2023-04-25T11:51:27;814.17;;;748.90;;
61204;SDS011;47068;55.780;37.520;2023-04-25T11:53:53;979.38;;;787.05;;
61204;SDS011;47068;55.780;37.520;2023-04-25T11:56:18;965.42;;;786.00;;
61204;SDS011;47068;55.780;37.520;2023-04-25T11:59:04;1009.43;;;790.70;;
61204;SDS011;47068;55.780;37.520;2023-04-25T12:01:31;1151.33;;;774.87;;
61204;SDS011;47068;55.780;37.520;2023-04-25T12:04:12;1121.10;;;705.47;;
61204;SDS011;47068;55.780;37.520;2023-04-25T12:06:39;1327.30;;;653.67;;
61204;SDS011;47068;55.780;37.520;2023-04-25T12:09:09;1144.03;;;772.17;;
61204;SDS011;47068;55.780;37.520;2023-04-25T12:11:42;1121.73;;;766.77;;
61204;SDS011;47068;55.780;37.520;2023-04-25T12:14:24;1039.33;;;768.70;;
61204;SDS011;47068;55.780;37.520;2023-04-25T12:16:54;948.30;;;718.03;;
61204;SDS011;47068;55.780;37.520;2023-04-25T12:19:22;1007.50;;;706.10;;
61204;SDS011;47068;55.780;37.520;2023-04-25T12:21:48;1027.57;;;709.20;;
61204;SDS011;47068;55.780;37.520;2023-04-25T12:29:25;1018.80;;;710.13;;
61204;SDS011;47068;55.780;37.520;2023-04-25T12:31:52;901.43;;;783.73;;
61204;SDS011;47068;55.780;37.520;2023-04-25T12:34:19;978.73;;;779.07;;
61204;SDS011;47068;55.780;37.520;2023-04-25T12:36:45;867.17;;;771.22;;
61204;SDS011;47068;55.780;37.520;2023-04-25T12:39:17;798.10;;;713.63;;
61204;SDS011;47068;55.780;37.520;2023-04-25T12:41:44;863.55;;;776.88;;
61204;SDS011;47068;55.780;37.520;2023-04-25T12:44:11;815.25;;;725.50;;
61204;SDS011;47068;55.780;37.520;2023-04-25T12:46:37;863.42;;;769.25;;
61204;SDS011;47068;55.780;37.520;2023-04-25T12:49:04;885.80;;;716.70;;
61204;SDS011;47068;55.780;37.520;2023-04-25T12:51:31;872.73;;;719.07;;
61204;SDS011;47068;55.780;37.520;2023-04-25T12:53:58;895.30;;;786.72;;
61204;SDS011;47068;55.780;37.520;2023-04-25T12:56:24;879.47;;;789.25;;
61204;SDS011;47068;55.780;37.520;2023-04-25T12:58:51;884.92;;;798.22;;
61204;SDS011;47068;55.780;37.520;2023-04-25T13:01:17;886.10;;;799.72;;
61204;SDS011;47068;55.780;37.520;2023-04-25T13:03:42;811.20;;;725.60;;
61204;SDS011;47068;55.780;37.520;2023-04-25T13:06:08;817.25;;;728.95;;
61204;SDS011;47068;55.780;37.520;2023-04-25T13:08:33;819.03;;;724.50;;
61204;SDS011;47068;55.780;37.520;2023-04-25T13:11:00;822.53;;;726.53;;
61204;SDS011;47068;55.780;37.520;2023-04-25T13:13:25;890.75;;;797.05;;
61204;SDS011;47068;55.780;37.520;2023-04-25T13:15:52;902.08;;;811.08;;
61204;SDS011;47068;55.780;37.520;2023-04-25T13:18:18;887.15;;;718.60;;
61204;SDS011;47068;55.780;37.520;2023-04-25T13:20:44;891.35;;;803.17;;
61204;SDS011;47068;55.780;37.520;2023-04-25T13:23:11;823.05;;;739.95;;
61204;SDS011;47068;55.780;37.520;2023-04-25T13:25:36;896.55;;;799.95;;
61204;SDS011;47068;55.780;37.520;2023-04-25T13:28:02;859.92;;;766.78;;
61204;SDS011;47068;55.780;37.520;2023-04-25T13:30:28;894.05;;;790.25;;
61204;SDS011;47068;55.780;37.520;2023-04-25T13:32:54;979.25;;;774.78;;
61204;SDS011;47068;55.780;37.520;2023-04-25T13:35:22;898.87;;;712.03;;
61204;SDS011;47068;55.780;37.520;2023-04-25T13:40:13;961.97;;;744.53;;
61204;SDS011;47068;55.780;37.520;2023-04-25T13:42:38;795.70;;;706.03;;
61204;SDS011;47068;55.780;37.520;2023-04-25T13:45:05;835.97;;;713.20;;
61204;SDS011;47068;55.780;37.520;2023-04-25T13:47:32;867.42;;;780.15;;
61204;SDS011;47068;55.780;37.520;2023-04-25T13:49:58;788.70;;;705.90;;
61204;SDS011;47068;55.780;37.520;2023-04-25T13:52:24;841.95;;;757.63;;
61204;SDS011;47068;55.780;37.520;2023-04-25T13:54:50;802.70;;;716.60;;
61204;SDS011;47068;55.780;37.520;2023-04-25T13:57:16;848.13;;;764.67;;
61204;SDS011;47068;55.780;37.520;2023-04-25T14:02:07;845.35;;;759.67;;
61204;SDS011;47068;55.780;37.520;2023-04-25T14:04:33;790.50;;;703.75;;
61204;SDS011;47068;55.780;37.520;2023-04-25T14:06:58;842.85;;;750.17;;
61204;SDS011;47068;55.780;37.520;2023-04-25T14:09:24;881.20;;;695.17;;
61204;SDS011;47068;55.780;37.520;2023-04-25T14:11:52;877.13;;;703.95;;
61204;SDS011;47068;55.780;37.520;2023-04-25T14:14:18;925.30;;;706.40;;
61204;SDS011;47068;55.780;37.520;2023-04-25T14:16:44;884.28;;;794.83;;
61204;SDS011;47068;55.780;37.520;2023-04-25T14:19:09;882.88;;;802.03;;
61204;SDS011;47068;55.780;37.520;2023-04-25T14:21:35;812.42;;;736.85;;
61204;SDS011;47068;55.780;37.520;2023-04-25T14:24:01;875.78;;;799.05;;
61204;SDS011;47068;55.780;37.520;2023-04-25T14:26:26;879.95;;;798.85;;
61204;SDS011;47068;55.780;37.520;2023-04-25T14:28:52;882.33;;;796.78;;